sensor_id;sensor_type;location;lat;lon;timestamp;temperature;humidity
2625;DHT22;1322;53.256;10.386;2023-02-23T00:01:39;10.10;99.90
2625;DHT22;1322;53.256;10.386;2023-02-23T00:04:06;10.20;99.90
2625;DHT22;1322;53.256;10.386;2023-02-23T00:06:33;10.20;99.90
2625;DHT22;1322;53.256;10.386;2023-02-23T00:09:01;10.20;99.90
2625;DHT22;1322;53.256;10.386;2023-02-23T00:11:27;10.10;99.90
2625;DHT22;1322;53.256;10.386;2023-02-23T00:13:53;10.00;99.90
2625;DHT22;1322;53.256;10.386;2023-02-23T00:16:24;10.00;99.90
2625;DHT22;1322;53.256;10.386;2023-02-23T00:18:52;10.00;99.90
2625;DHT22;1322;53.256;10.386;2023-02-23T00:21:31;9.90;99.90
2625;DHT22;1322;53.256;10.386;2023-02-23T00:24:10;10.00;99.90
2625;DHT22;1322;53.256;10.386;2023-02-23T00:26:37;9.90;99.90
2625;DHT22;1322;53.256;10.386;2023-02-23T00:29:10;10.00;99.90
2625;DHT22;1322;53.256;10.386;2023-02-23T00:31:37;10.00;99.90
2625;DHT22;1322;53.256;10.386;2023-02-23T00:34:03;10.20;99.90
2625;DHT22;1322;53.256;10.386;2023-02-23T00:36:31;10.20;99.90
2625;DHT22;1322;53.256;10.386;2023-02-23T00:38:59;10.30;99.90
2625;DHT22;1322;53.256;10.386;2023-02-23T00:41:25;10.30;99.90
2625;DHT22;1322;53.256;10.386;2023-02-23T00:43:54;10.40;99.90
2625;DHT22;1322;53.256;10.386;2023-02-23T00:46:22;10.40;99.90
2625;DHT22;1322;53.256;10.386;2023-02-23T00:48:49;10.30;99.90
2625;DHT22;1322;53.256;10.386;2023-02-23T00:51:16;10.40;99.90
2625;DHT22;1322;53.256;10.386;2023-02-23T00:53:43;10.40;99.90
2625;DHT22;1322;53.256;10.386;2023-02-23T00:56:10;10.40;99.90
2625;DHT22;1322;53.256;10.386;2023-02-23T00:58:36;10.40;99.90
2625;DHT22;1322;53.256;10.386;2023-02-23T01:01:06;10.30;99.90
2625;DHT22;1322;53.256;10.386;2023-02-23T01:03:34;10.30;99.90
2625;DHT22;1322;53.256;10.386;2023-02-23T01:06:03;10.30;99.90
2625;DHT22;1322;53.256;10.386;2023-02-23T01:08:31;10.30;99.90
2625;DHT22;1322;53.256;10.386;2023-02-23T01:10:58;10.30;99.90
2625;DHT22;1322;53.256;10.386;2023-02-23T01:13:24;10.30;99.90
2625;DHT22;1322;53.256;10.386;2023-02-23T01:15:52;10.20;99.90
2625;DHT22;1322;53.256;10.386;2023-02-23T01:18:19;10.10;99.90
2625;DHT22;1322;53.256;10.386;2023-02-23T01:20:45;10.00;99.90
2625;DHT22;1322;53.256;10.386;2023-02-23T01:23:14;10.10;99.90
2625;DHT22;1322;53.256;10.386;2023-02-23T01:25:42;10.10;99.90
2625;DHT22;1322;53.256;10.386;2023-02-23T01:28:09;10.10;99.90
2625;DHT22;1322;53.256;10.386;2023-02-23T01:30:35;10.00;99.90
2625;DHT22;1322;53.256;10.386;2023-02-23T01:33:01;10.00;99.90
2625;DHT22;1322;53.256;10.386;2023-02-23T01:35:27;9.90;99.90
2625;DHT22;1322;53.256;10.386;2023-02-23T01:37:53;9.90;99.90
2625;DHT22;1322;53.256;10.386;2023-02-23T01:40:21;9.80;99.90
2625;DHT22;1322;53.256;10.386;2023-02-23T01:42:55;9.70;99.90
2625;DHT22;1322;53.256;10.386;2023-02-23T01:45:42;9.60;99.90
2625;DHT22;1322;53.256;10.386;2023-02-23T01:48:21;9.70;99.90
2625;DHT22;1322;53.256;10.386;2023-02-23T01:50:51;9.70;99.90
2625;DHT22;1322;53.256;10.386;2023-02-23T01:53:22;9.70;99.90
2625;DHT22;1322;53.256;10.386;2023-02-23T01:55:51;9.70;99.90
2625;DHT22;1322;53.256;10.386;2023-02-23T01:58:21;9.80;99.90
2625;DHT22;1322;53.256;10.386;2023-02-23T02:00:54;9.80;99.90
2625;DHT22;1322;53.256;10.386;2023-02-23T02:03:32;9.80;99.90
2625;DHT22;1322;53.256;10.386;2023-02-23T02:06:01;9.80;99.90
2625;DHT22;1322;53.256;10.386;2023-02-23T02:08:31;9.80;99.90
2625;DHT22;1322;53.256;10.386;2023-02-23T02:10:58;9.70;99.90
2625;DHT22;1322;53.256;10.386;2023-02-23T02:13:29;9.80;99.90
2625;DHT22;1322;53.256;10.386;2023-02-23T02:16:06;9.80;99.90
2625;DHT22;1322;53.256;10.386;2023-02-23T02:36:09;9.70;99.90
2625;DHT22;1322;53.256;10.386;2023-02-23T02:38:47;9.70;99.90
2625;DHT22;1322;53.256;10.386;2023-02-23T02:41:44;9.70;99.90
2625;DHT22;1322;53.256;10.386;2023-02-23T02:47:14;9.60;99.90
2625;DHT22;1322;53.256;10.386;2023-02-23T02:50:03;9.50;99.90
2625;DHT22;1322;53.256;10.386;2023-02-23T02:52:43;9.50;99.90
2625;DHT22;1322;53.256;10.386;2023-02-23T02:55:31;9.50;99.90
2625;DHT22;1322;53.256;10.386;2023-02-23T02:58:01;9.50;99.90
2625;DHT22;1322;53.256;10.386;2023-02-23T03:00:34;9.50;99.90
2625;DHT22;1322;53.256;10.386;2023-02-23T03:03:38;9.30;99.90
2625;DHT22;1322;53.256;10.386;2023-02-23T03:06:29;9.30;99.90
2625;DHT22;1322;53.256;10.386;2023-02-23T03:12:25;9.00;99.90
2625;DHT22;1322;53.256;10.386;2023-02-23T03:15:28;9.10;99.90
2625;DHT22;1322;53.256;10.386;2023-02-23T03:18:29;9.20;99.90
2625;DHT22;1322;53.256;10.386;2023-02-23T03:21:27;9.30;99.90
2625;DHT22;1322;53.256;10.386;2023-02-23T03:27:22;9.30;99.90
2625;DHT22;1322;53.256;10.386;2023-02-23T03:36:39;9.40;99.90
2625;DHT22;1322;53.256;10.386;2023-02-23T03:39:52;9.40;99.90
2625;DHT22;1322;53.256;10.386;2023-02-23T03:42:39;9.40;99.90
2625;DHT22;1322;53.256;10.386;2023-02-23T03:45:25;9.40;99.90
2625;DHT22;1322;53.256;10.386;2023-02-23T03:48:12;9.40;99.90
2625;DHT22;1322;53.256;10.386;2023-02-23T03:51:01;9.30;99.90
2625;DHT22;1322;53.256;10.386;2023-02-23T03:54:14;9.50;99.90
2625;DHT22;1322;53.256;10.386;2023-02-23T03:56:58;9.50;99.90
2625;DHT22;1322;53.256;10.386;2023-02-23T03:59:48;9.50;99.90
2625;DHT22;1322;53.256;10.386;2023-02-23T04:02:33;9.60;99.90
2625;DHT22;1322;53.256;10.386;2023-02-23T04:05:20;9.60;99.90
2625;DHT22;1322;53.256;10.386;2023-02-23T04:08:08;9.60;99.90
2625;DHT22;1322;53.256;10.386;2023-02-23T04:11:01;9.60;99.90
2625;DHT22;1322;53.256;10.386;2023-02-23T04:13:48;9.60;99.90
2625;DHT22;1322;53.256;10.386;2023-02-23T04:16:17;9.60;99.90
2625;DHT22;1322;53.256;10.386;2023-02-23T04:18:42;9.70;99.90
2625;DHT22;1322;53.256;10.386;2023-02-23T04:21:08;9.70;99.90
2625;DHT22;1322;53.256;10.386;2023-02-23T04:23:35;9.80;99.90
2625;DHT22;1322;53.256;10.386;2023-02-23T04:26:02;9.80;99.90
2625;DHT22;1322;53.256;10.386;2023-02-23T04:28:29;9.80;99.90
2625;DHT22;1322;53.256;10.386;2023-02-23T04:30:55;9.90;99.90
2625;DHT22;1322;53.256;10.386;2023-02-23T04:33:21;9.80;99.90
2625;DHT22;1322;53.256;10.386;2023-02-23T04:35:51;9.80;99.90
2625;DHT22;1322;53.256;10.386;2023-02-23T04:38:18;9.80;99.90
2625;DHT22;1322;53.256;10.386;2023-02-23T04:40:43;9.80;99.90
2625;DHT22;1322;53.256;10.386;2023-02-23T04:43:12;9.80;99.90
2625;DHT22;1322;53.256;10.386;2023-02-23T04:45:38;9.70;99.90
2625;DHT22;1322;53.256;10.386;2023-02-23T04:48:04;9.70;99.90
2625;DHT22;1322;53.256;10.386;2023-02-23T04:50:30;9.70;99.90
2625;DHT22;1322;53.256;10.386;2023-02-23T04:52:55;9.80;99.90
2625;DHT22;1322;53.256;10.386;2023-02-23T04:55:23;9.80;99.90
2625;DHT22;1322;53.256;10.386;2023-02-23T04:57:50;9.80;99.90
2625;DHT22;1322;53.256;10.386;2023-02-23T05:00:17;9.80;99.90
2625;DHT22;1322;53.256;10.386;2023-02-23T05:02:43;9.80;99.90
2625;DHT22;1322;53.256;10.386;2023-02-23T05:05:09;9.80;99.90
2625;DHT22;1322;53.256;10.386;2023-02-23T05:07:35;9.80;99.90
2625;DHT22;1322;53.256;10.386;2023-02-23T05:10:02;9.80;99.90
2625;DHT22;1322;53.256;10.386;2023-02-23T05:12:28;9.80;99.90
2625;DHT22;1322;53.256;10.386;2023-02-23T05:14:53;9.80;99.90
2625;DHT22;1322;53.256;10.386;2023-02-23T05:17:19;9.80;99.90
2625;DHT22;1322;53.256;10.386;2023-02-23T05:19:44;9.90;99.90
2625;DHT22;1322;53.256;10.386;2023-02-23T05:22:10;9.90;99.90
2625;DHT22;1322;53.256;10.386;2023-02-23T05:24:38;9.80;99.90
2625;DHT22;1322;53.256;10.386;2023-02-23T05:27:04;9.80;99.90
2625;DHT22;1322;53.256;10.386;2023-02-23T05:29:30;9.70;99.90
2625;DHT22;1322;53.256;10.386;2023-02-23T05:31:56;9.80;99.90
2625;DHT22;1322;53.256;10.386;2023-02-23T05:34:22;9.80;99.90
2625;DHT22;1322;53.256;10.386;2023-02-23T05:36:47;9.80;99.90
2625;DHT22;1322;53.256;10.386;2023-02-23T05:39:13;9.70;99.90
2625;DHT22;1322;53.256;10.386;2023-02-23T05:41:38;9.80;99.90
2625;DHT22;1322;53.256;10.386;2023-02-23T05:44:04;9.80;99.90
2625;DHT22;1322;53.256;10.386;2023-02-23T05:46:30;9.90;99.90
2625;DHT22;1322;53.256;10.386;2023-02-23T05:48:57;9.90;99.90
2625;DHT22;1322;53.256;10.386;2023-02-23T05:51:24;9.90;99.90
2625;DHT22;1322;53.256;10.386;2023-02-23T05:53:50;9.90;99.90
2625;DHT22;1322;53.256;10.386;2023-02-23T05:56:19;9.90;99.90
2625;DHT22;1322;53.256;10.386;2023-02-23T05:58:49;9.90;99.90
2625;DHT22;1322;53.256;10.386;2023-02-23T06:01:16;10.00;99.90
2625;DHT22;1322;53.256;10.386;2023-02-23T06:03:42;10.00;99.90
2625;DHT22;1322;53.256;10.386;2023-02-23T06:06:08;10.00;99.90
2625;DHT22;1322;53.256;10.386;2023-02-23T06:08:34;10.00;99.90
2625;DHT22;1322;53.256;10.386;2023-02-23T06:10:59;10.00;99.90
2625;DHT22;1322;53.256;10.386;2023-02-23T06:13:25;10.00;99.90
2625;DHT22;1322;53.256;10.386;2023-02-23T06:15:51;10.00;99.90
2625;DHT22;1322;53.256;10.386;2023-02-23T06:18:16;10.00;99.90
2625;DHT22;1322;53.256;10.386;2023-02-23T06:20:42;10.00;99.90
2625;DHT22;1322;53.256;10.386;2023-02-23T06:23:08;10.00;99.90
2625;DHT22;1322;53.256;10.386;2023-02-23T06:25:33;10.00;99.90
2625;DHT22;1322;53.256;10.386;2023-02-23T06:27:59;9.90;99.90
2625;DHT22;1322;53.256;10.386;2023-02-23T06:30:25;9.90;99.90
2625;DHT22;1322;53.256;10.386;2023-02-23T06:32:50;9.90;99.90
2625;DHT22;1322;53.256;10.386;2023-02-23T06:35:16;9.90;99.90
2625;DHT22;1322;53.256;10.386;2023-02-23T06:37:42;9.90;99.90
2625;DHT22;1322;53.256;10.386;2023-02-23T06:40:08;9.90;99.90
2625;DHT22;1322;53.256;10.386;2023-02-23T06:42:34;10.00;99.90
2625;DHT22;1322;53.256;10.386;2023-02-23T06:45:02;10.00;99.90
2625;DHT22;1322;53.256;10.386;2023-02-23T06:47:27;10.00;99.90
2625;DHT22;1322;53.256;10.386;2023-02-23T06:49:53;10.00;99.90
2625;DHT22;1322;53.256;10.386;2023-02-23T06:52:19;10.00;99.90
2625;DHT22;1322;53.256;10.386;2023-02-23T06:54:45;10.10;99.90
2625;DHT22;1322;53.256;10.386;2023-02-23T06:57:13;10.10;99.90
2625;DHT22;1322;53.256;10.386;2023-02-23T06:59:39;10.10;99.90
2625;DHT22;1322;53.256;10.386;2023-02-23T07:02:05;10.20;99.90
2625;DHT22;1322;53.256;10.386;2023-02-23T07:04:31;10.20;99.90
2625;DHT22;1322;53.256;10.386;2023-02-23T07:06:57;10.20;99.90
2625;DHT22;1322;53.256;10.386;2023-02-23T07:09:23;10.20;99.90
2625;DHT22;1322;53.256;10.386;2023-02-23T07:11:51;10.20;99.90
2625;DHT22;1322;53.256;10.386;2023-02-23T07:14:17;10.30;99.90
2625;DHT22;1322;53.256;10.386;2023-02-23T07:16:43;10.40;99.90
2625;DHT22;1322;53.256;10.386;2023-02-23T07:19:08;10.40;99.90
2625;DHT22;1322;53.256;10.386;2023-02-23T07:21:34;10.40;99.90
2625;DHT22;1322;53.256;10.386;2023-02-23T07:24:00;10.40;99.90
2625;DHT22;1322;53.256;10.386;2023-02-23T07:26:29;10.50;99.90
2625;DHT22;1322;53.256;10.386;2023-02-23T07:28:55;10.50;99.90
2625;DHT22;1322;53.256;10.386;2023-02-23T07:31:20;10.50;99.90
2625;DHT22;1322;53.256;10.386;2023-02-23T07:33:46;10.60;99.90
2625;DHT22;1322;53.256;10.386;2023-02-23T07:36:12;10.60;99.90
2625;DHT22;1322;53.256;10.386;2023-02-23T07:38:37;10.70;99.90
2625;DHT22;1322;53.256;10.386;2023-02-23T07:41:04;10.70;99.90
2625;DHT22;1322;53.256;10.386;2023-02-23T07:43:29;10.70;99.90
2625;DHT22;1322;53.256;10.386;2023-02-23T07:45:59;10.80;99.90
2625;DHT22;1322;53.256;10.386;2023-02-23T07:48:25;10.70;99.90
2625;DHT22;1322;53.256;10.386;2023-02-23T07:50:51;10.70;99.90
2625;DHT22;1322;53.256;10.386;2023-02-23T07:53:17;10.70;99.90
2625;DHT22;1322;53.256;10.386;2023-02-23T07:55:42;10.60;99.90
2625;DHT22;1322;53.256;10.386;2023-02-23T07:58:08;10.60;99.90
2625;DHT22;1322;53.256;10.386;2023-02-23T08:00:34;10.60;99.90
2625;DHT22;1322;53.256;10.386;2023-02-23T08:03:01;10.70;99.90
2625;DHT22;1322;53.256;10.386;2023-02-23T08:05:27;10.70;99.90
2625;DHT22;1322;53.256;10.386;2023-02-23T08:07:54;10.80;99.90
2625;DHT22;1322;53.256;10.386;2023-02-23T08:10:20;10.80;99.90
2625;DHT22;1322;53.256;10.386;2023-02-23T08:12:46;10.90;99.90
2625;DHT22;1322;53.256;10.386;2023-02-23T08:15:12;10.90;99.90
2625;DHT22;1322;53.256;10.386;2023-02-23T08:17:38;10.90;99.90
2625;DHT22;1322;53.256;10.386;2023-02-23T08:20:06;10.90;99.90
2625;DHT22;1322;53.256;10.386;2023-02-23T08:22:32;11.00;99.90
2625;DHT22;1322;53.256;10.386;2023-02-23T08:24:57;11.00;99.90
2625;DHT22;1322;53.256;10.386;2023-02-23T08:27:23;11.10;99.90
2625;DHT22;1322;53.256;10.386;2023-02-23T08:29:49;11.10;99.90
2625;DHT22;1322;53.256;10.386;2023-02-23T08:32:17;11.10;99.90
2625;DHT22;1322;53.256;10.386;2023-02-23T08:34:43;11.20;99.90
2625;DHT22;1322;53.256;10.386;2023-02-23T08:37:09;11.20;99.90
2625;DHT22;1322;53.256;10.386;2023-02-23T08:39:36;11.30;99.90
2625;DHT22;1322;53.256;10.386;2023-02-23T08:42:02;11.30;99.90
2625;DHT22;1322;53.256;10.386;2023-02-23T08:44:28;11.40;99.90
2625;DHT22;1322;53.256;10.386;2023-02-23T08:46:54;11.40;99.90
2625;DHT22;1322;53.256;10.386;2023-02-23T08:49:20;11.40;99.90
2625;DHT22;1322;53.256;10.386;2023-02-23T08:51:46;11.40;99.90
2625;DHT22;1322;53.256;10.386;2023-02-23T08:54:12;11.40;99.90
2625;DHT22;1322;53.256;10.386;2023-02-23T08:56:43;11.50;99.90
2625;DHT22;1322;53.256;10.386;2023-02-23T08:59:09;11.50;99.90
2625;DHT22;1322;53.256;10.386;2023-02-23T09:01:35;11.40;99.90
2625;DHT22;1322;53.256;10.386;2023-02-23T09:04:02;11.40;99.90
2625;DHT22;1322;53.256;10.386;2023-02-23T09:06:28;11.50;99.90
2625;DHT22;1322;53.256;10.386;2023-02-23T09:08:55;11.50;99.90
2625;DHT22;1322;53.256;10.386;2023-02-23T09:11:21;11.50;99.90
2625;DHT22;1322;53.256;10.386;2023-02-23T09:13:47;11.50;99.90
2625;DHT22;1322;53.256;10.386;2023-02-23T09:16:13;11.50;99.90
2625;DHT22;1322;53.256;10.386;2023-02-23T09:18:39;11.50;99.90
2625;DHT22;1322;53.256;10.386;2023-02-23T09:21:06;11.60;99.90
2625;DHT22;1322;53.256;10.386;2023-02-23T09:23:33;11.60;99.90
2625;DHT22;1322;53.256;10.386;2023-02-23T09:26:04;11.70;99.90
2625;DHT22;1322;53.256;10.386;2023-02-23T09:28:30;11.70;99.90
2625;DHT22;1322;53.256;10.386;2023-02-23T09:31:03;11.70;99.90
2625;DHT22;1322;53.256;10.386;2023-02-23T09:33:30;11.80;99.90
2625;DHT22;1322;53.256;10.386;2023-02-23T09:35:56;11.80;99.90
2625;DHT22;1322;53.256;10.386;2023-02-23T09:38:21;11.80;99.90
2625;DHT22;1322;53.256;10.386;2023-02-23T09:40:51;11.80;99.90
2625;DHT22;1322;53.256;10.386;2023-02-23T09:43:47;11.90;99.90
2625;DHT22;1322;53.256;10.386;2023-02-23T09:46:36;11.90;99.90
2625;DHT22;1322;53.256;10.386;2023-02-23T09:49:17;12.00;99.90
2625;DHT22;1322;53.256;10.386;2023-02-23T09:51:50;12.00;99.90
2625;DHT22;1322;53.256;10.386;2023-02-23T09:54:23;12.10;99.90
2625;DHT22;1322;53.256;10.386;2023-02-23T09:56:51;12.10;99.90
2625;DHT22;1322;53.256;10.386;2023-02-23T09:59:19;12.00;99.90
2625;DHT22;1322;53.256;10.386;2023-02-23T10:01:52;12.10;99.90
2625;DHT22;1322;53.256;10.386;2023-02-23T10:04:30;12.00;99.90
2625;DHT22;1322;53.256;10.386;2023-02-23T10:07:02;12.10;99.90
2625;DHT22;1322;53.256;10.386;2023-02-23T10:14:59;12.10;99.90
2625;DHT22;1322;53.256;10.386;2023-02-23T10:17:59;12.10;99.90
2625;DHT22;1322;53.256;10.386;2023-02-23T10:20:45;12.20;99.90
2625;DHT22;1322;53.256;10.386;2023-02-23T10:23:27;12.20;99.90
2625;DHT22;1322;53.256;10.386;2023-02-23T10:25:56;12.20;99.90
2625;DHT22;1322;53.256;10.386;2023-02-23T10:28:24;12.20;99.90
2625;DHT22;1322;53.256;10.386;2023-02-23T10:30:52;12.20;99.90
2625;DHT22;1322;53.256;10.386;2023-02-23T10:33:25;12.20;99.90
2625;DHT22;1322;53.256;10.386;2023-02-23T10:35:57;12.10;99.90
2625;DHT22;1322;53.256;10.386;2023-02-23T10:38:25;12.10;99.90
2625;DHT22;1322;53.256;10.386;2023-02-23T10:40:54;12.10;99.90
2625;DHT22;1322;53.256;10.386;2023-02-23T10:43:20;12.10;99.90
2625;DHT22;1322;53.256;10.386;2023-02-23T10:45:49;12.10;99.90
2625;DHT22;1322;53.256;10.386;2023-02-23T10:48:28;12.00;99.90
2625;DHT22;1322;53.256;10.386;2023-02-23T10:50:57;12.00;99.90
2625;DHT22;1322;53.256;10.386;2023-02-23T10:53:32;12.00;99.90
2625;DHT22;1322;53.256;10.386;2023-02-23T10:56:10;11.90;99.90
2625;DHT22;1322;53.256;10.386;2023-02-23T10:58:49;11.80;99.90
2625;DHT22;1322;53.256;10.386;2023-02-23T11:04:32;11.40;99.90
2625;DHT22;1322;53.256;10.386;2023-02-23T11:07:17;11.00;99.90
2625;DHT22;1322;53.256;10.386;2023-02-23T11:09:43;10.90;99.90
2625;DHT22;1322;53.256;10.386;2023-02-23T11:12:19;10.80;99.90
2625;DHT22;1322;53.256;10.386;2023-02-23T11:14:52;10.80;99.90
2625;DHT22;1322;53.256;10.386;2023-02-23T11:19:49;10.90;99.90
2625;DHT22;1322;53.256;10.386;2023-02-23T11:22:19;11.10;99.90
2625;DHT22;1322;53.256;10.386;2023-02-23T11:24:52;11.40;99.90
2625;DHT22;1322;53.256;10.386;2023-02-23T11:27:24;11.50;99.90
2625;DHT22;1322;53.256;10.386;2023-02-23T11:29:51;11.60;99.90
2625;DHT22;1322;53.256;10.386;2023-02-23T11:32:27;11.70;99.90
2625;DHT22;1322;53.256;10.386;2023-02-23T11:35:24;11.60;99.90
2625;DHT22;1322;53.256;10.386;2023-02-23T11:37:51;11.40;99.90
2625;DHT22;1322;53.256;10.386;2023-02-23T11:40:20;11.30;99.90
2625;DHT22;1322;53.256;10.386;2023-02-23T11:42:55;11.20;99.90
2625;DHT22;1322;53.256;10.386;2023-02-23T11:45:25;11.00;99.90
2625;DHT22;1322;53.256;10.386;2023-02-23T11:47:55;11.00;99.90
2625;DHT22;1322;53.256;10.386;2023-02-23T11:50:49;11.00;99.90
2625;DHT22;1322;53.256;10.386;2023-02-23T11:53:20;10.90;99.90
2625;DHT22;1322;53.256;10.386;2023-02-23T11:55:51;10.90;99.90
2625;DHT22;1322;53.256;10.386;2023-02-23T12:00:59;10.50;99.90
2625;DHT22;1322;53.256;10.386;2023-02-23T12:03:27;10.30;99.90
2625;DHT22;1322;53.256;10.386;2023-02-23T12:05:54;10.20;99.90
2625;DHT22;1322;53.256;10.386;2023-02-23T12:08:31;10.20;99.90
2625;DHT22;1322;53.256;10.386;2023-02-23T12:11:02;10.30;99.90
2625;DHT22;1322;53.256;10.386;2023-02-23T12:13:52;10.40;99.90
2625;DHT22;1322;53.256;10.386;2023-02-23T12:16:28;10.60;99.90
2625;DHT22;1322;53.256;10.386;2023-02-23T12:19:58;10.70;99.90
2625;DHT22;1322;53.256;10.386;2023-02-23T12:22:02;11.00;99.90
2625;DHT22;1322;53.256;10.386;2023-02-23T12:27:36;11.40;99.90
2625;DHT22;1322;53.256;10.386;2023-02-23T12:30:23;11.50;99.90
2625;DHT22;1322;53.256;10.386;2023-02-23T12:33:05;11.50;99.90
2625;DHT22;1322;53.256;10.386;2023-02-23T12:36:03;11.40;99.90
2625;DHT22;1322;53.256;10.386;2023-02-23T12:41:44;11.00;99.90
2625;DHT22;1322;53.256;10.386;2023-02-23T12:47:00;10.80;99.90
2625;DHT22;1322;53.256;10.386;2023-02-23T12:52:24;10.70;99.90
2625;DHT22;1322;53.256;10.386;2023-02-23T12:54:50;10.60;99.90
2625;DHT22;1322;53.256;10.386;2023-02-23T13:00:29;10.50;99.90
2625;DHT22;1322;53.256;10.386;2023-02-23T13:05:40;10.40;99.90
2625;DHT22;1322;53.256;10.386;2023-02-23T13:08:26;10.20;99.90
2625;DHT22;1322;53.256;10.386;2023-02-23T13:13:45;10.10;99.90
2625;DHT22;1322;53.256;10.386;2023-02-23T13:16:34;9.90;99.90
2625;DHT22;1322;53.256;10.386;2023-02-23T13:19:28;9.90;99.90
2625;DHT22;1322;53.256;10.386;2023-02-23T13:24:45;9.80;99.90
2625;DHT22;1322;53.256;10.386;2023-02-23T13:27:19;9.80;99.90
2625;DHT22;1322;53.256;10.386;2023-02-23T13:29:49;9.70;99.90
2625;DHT22;1322;53.256;10.386;2023-02-23T13:32:21;9.70;99.90
2625;DHT22;1322;53.256;10.386;2023-02-23T13:43:26;9.30;99.90
2625;DHT22;1322;53.256;10.386;2023-02-23T13:45:55;9.30;99.90
2625;DHT22;1322;53.256;10.386;2023-02-23T13:48:45;9.40;99.90
2625;DHT22;1322;53.256;10.386;2023-02-23T13:51:27;9.50;99.90
2625;DHT22;1322;53.256;10.386;2023-02-23T13:54:29;9.70;99.90
2625;DHT22;1322;53.256;10.386;2023-02-23T13:56:58;9.90;99.90
2625;DHT22;1322;53.256;10.386;2023-02-23T13:59:28;10.00;99.90
2625;DHT22;1322;53.256;10.386;2023-02-23T14:01:55;10.20;99.90
2625;DHT22;1322;53.256;10.386;2023-02-23T14:04:27;10.40;99.90
2625;DHT22;1322;53.256;10.386;2023-02-23T14:06:54;10.50;99.90
2625;DHT22;1322;53.256;10.386;2023-02-23T14:09:30;10.70;99.90
2625;DHT22;1322;53.256;10.386;2023-02-23T14:12:12;10.80;99.90
2625;DHT22;1322;53.256;10.386;2023-02-23T14:14:43;10.90;99.90
2625;DHT22;1322;53.256;10.386;2023-02-23T14:22:35;10.80;99.90
2625;DHT22;1322;53.256;10.386;2023-02-23T14:28:02;11.00;99.90
2625;DHT22;1322;53.256;10.386;2023-02-23T14:30:45;11.00;99.90
2625;DHT22;1322;53.256;10.386;2023-02-23T14:39:28;10.90;99.90
2625;DHT22;1322;53.256;10.386;2023-02-23T14:41:54;10.80;99.90
2625;DHT22;1322;53.256;10.386;2023-02-23T14:44:36;10.90;99.90
2625;DHT22;1322;53.256;10.386;2023-02-23T14:47:10;11.00;99.90
2625;DHT22;1322;53.256;10.386;2023-02-23T14:49:41;11.00;99.90
2625;DHT22;1322;53.256;10.386;2023-02-23T14:54:39;10.80;99.90
2625;DHT22;1322;53.256;10.386;2023-02-23T14:57:19;10.80;99.90
2625;DHT22;1322;53.256;10.386;2023-02-23T15:00:40;10.80;99.90
2625;DHT22;1322;53.256;10.386;2023-02-23T15:02:36;10.70;99.90
2625;DHT22;1322;53.256;10.386;2023-02-23T15:05:23;10.70;99.90
2625;DHT22;1322;53.256;10.386;2023-02-23T15:07:50;10.70;99.90
2625;DHT22;1322;53.256;10.386;2023-02-23T15:10:40;10.70;99.90
2625;DHT22;1322;53.256;10.386;2023-02-23T15:15:44;10.70;99.90
2625;DHT22;1322;53.256;10.386;2023-02-23T15:18:23;10.70;99.90
2625;DHT22;1322;53.256;10.386;2023-02-23T15:20:51;10.60;99.90
2625;DHT22;1322;53.256;10.386;2023-02-23T15:23:18;10.60;99.90
2625;DHT22;1322;53.256;10.386;2023-02-23T15:25:44;10.60;99.90
2625;DHT22;1322;53.256;10.386;2023-02-23T15:28:29;10.70;99.90
2625;DHT22;1322;53.256;10.386;2023-02-23T15:30:59;10.80;99.90
2625;DHT22;1322;53.256;10.386;2023-02-23T15:33:25;10.70;99.90
2625;DHT22;1322;53.256;10.386;2023-02-23T15:38:40;10.80;99.90
2625;DHT22;1322;53.256;10.386;2023-02-23T15:41:12;10.70;99.90
2625;DHT22;1322;53.256;10.386;2023-02-23T15:43:41;10.70;99.90
2625;DHT22;1322;53.256;10.386;2023-02-23T15:46:07;10.70;99.90
2625;DHT22;1322;53.256;10.386;2023-02-23T15:48:45;10.70;99.90
2625;DHT22;1322;53.256;10.386;2023-02-23T15:53:49;10.70;99.90
2625;DHT22;1322;53.256;10.386;2023-02-23T15:56:28;10.80;99.90
2625;DHT22;1322;53.256;10.386;2023-02-23T15:59:02;10.80;99.90
2625;DHT22;1322;53.256;10.386;2023-02-23T16:01:29;10.90;99.90
2625;DHT22;1322;53.256;10.386;2023-02-23T16:04:16;10.90;99.90
2625;DHT22;1322;53.256;10.386;2023-02-23T16:07:22;10.90;99.90
2625;DHT22;1322;53.256;10.386;2023-02-23T16:10:02;10.90;99.90
2625;DHT22;1322;53.256;10.386;2023-02-23T16:15:19;11.00;99.90
2625;DHT22;1322;53.256;10.386;2023-02-23T16:17:50;11.00;99.90
2625;DHT22;1322;53.256;10.386;2023-02-23T16:20:26;11.00;99.90
2625;DHT22;1322;53.256;10.386;2023-02-23T16:22:54;10.90;99.90
2625;DHT22;1322;53.256;10.386;2023-02-23T16:25:24;10.90;99.90
2625;DHT22;1322;53.256;10.386;2023-02-23T16:27:56;10.90;99.90
2625;DHT22;1322;53.256;10.386;2023-02-23T16:30:49;10.90;99.90
2625;DHT22;1322;53.256;10.386;2023-02-23T16:33:26;10.90;99.90
2625;DHT22;1322;53.256;10.386;2023-02-23T16:38:53;10.90;99.90
2625;DHT22;1322;53.256;10.386;2023-02-23T16:41:22;10.90;99.90
2625;DHT22;1322;53.256;10.386;2023-02-23T16:43:50;10.90;99.90
2625;DHT22;1322;53.256;10.386;2023-02-23T16:46:17;10.80;99.90
2625;DHT22;1322;53.256;10.386;2023-02-23T16:48:43;10.90;99.90
2625;DHT22;1322;53.256;10.386;2023-02-23T16:51:16;10.90;99.90
2625;DHT22;1322;53.256;10.386;2023-02-23T16:53:43;10.70;99.90
2625;DHT22;1322;53.256;10.386;2023-02-23T16:56:10;10.70;99.90
2625;DHT22;1322;53.256;10.386;2023-02-23T16:58:43;10.60;99.90
2625;DHT22;1322;53.256;10.386;2023-02-23T17:01:12;10.60;99.90
2625;DHT22;1322;53.256;10.386;2023-02-23T17:03:41;10.50;99.90
2625;DHT22;1322;53.256;10.386;2023-02-23T17:06:09;10.40;99.90
2625;DHT22;1322;53.256;10.386;2023-02-23T17:08:36;10.30;99.90
2625;DHT22;1322;53.256;10.386;2023-02-23T17:11:03;10.30;99.90
2625;DHT22;1322;53.256;10.386;2023-02-23T17:13:30;10.30;99.90
2625;DHT22;1322;53.256;10.386;2023-02-23T17:16:01;10.20;99.90
2625;DHT22;1322;53.256;10.386;2023-02-23T17:18:34;10.00;99.90
2625;DHT22;1322;53.256;10.386;2023-02-23T17:21:04;9.90;99.90
2625;DHT22;1322;53.256;10.386;2023-02-23T17:23:33;9.80;99.90
2625;DHT22;1322;53.256;10.386;2023-02-23T17:26:12;9.60;99.90
2625;DHT22;1322;53.256;10.386;2023-02-23T17:28:39;9.40;99.90
2625;DHT22;1322;53.256;10.386;2023-02-23T17:31:05;9.30;99.90
2625;DHT22;1322;53.256;10.386;2023-02-23T17:33:32;9.20;99.90
2625;DHT22;1322;53.256;10.386;2023-02-23T17:35:59;9.10;99.90
2625;DHT22;1322;53.256;10.386;2023-02-23T17:38:26;9.00;99.90
2625;DHT22;1322;53.256;10.386;2023-02-23T17:41:11;9.00;99.90
2625;DHT22;1322;53.256;10.386;2023-02-23T17:43:40;9.00;99.90
2625;DHT22;1322;53.256;10.386;2023-02-23T17:46:06;9.00;99.90
2625;DHT22;1322;53.256;10.386;2023-02-23T17:48:31;9.00;99.90
2625;DHT22;1322;53.256;10.386;2023-02-23T17:51:04;9.00;99.90
2625;DHT22;1322;53.256;10.386;2023-02-23T17:53:31;9.00;99.90
2625;DHT22;1322;53.256;10.386;2023-02-23T17:55:57;9.00;99.90
2625;DHT22;1322;53.256;10.386;2023-02-23T17:58:23;8.80;99.90
2625;DHT22;1322;53.256;10.386;2023-02-23T18:00:57;8.50;99.90
2625;DHT22;1322;53.256;10.386;2023-02-23T18:03:23;8.30;99.90
2625;DHT22;1322;53.256;10.386;2023-02-23T18:05:50;8.20;99.90
2625;DHT22;1322;53.256;10.386;2023-02-23T18:08:20;8.10;99.90
2625;DHT22;1322;53.256;10.386;2023-02-23T18:10:50;8.10;99.90